sensor_id;sensor_type;location;lat;lon;timestamp;P1;durP1;ratioP1;P2;durP2;ratioP2
57465;SDS011;67033;44.984;20.068;2023-04-09T00:02:21;60.50;;;39.47;;
57465;SDS011;67033;44.984;20.068;2023-04-09T00:04:48;64.97;;;40.30;;
57465;SDS011;67033;44.984;20.068;2023-04-09T00:07:14;74.15;;;43.20;;
57465;SDS011;67033;44.984;20.068;2023-04-09T00:09:40;61.80;;;41.45;;
57465;SDS011;67033;44.984;20.068;2023-04-09T00:12:06;64.85;;;43.90;;
57465;SDS011;67033;44.984;20.068;2023-04-09T00:14:32;61.65;;;40.63;;
57465;SDS011;67033;44.984;20.068;2023-04-09T00:16:59;59.30;;;40.03;;
57465;SDS011;67033;44.984;20.068;2023-04-09T00:19:25;60.50;;;40.58;;
57465;SDS011;67033;44.984;20.068;2023-04-09T00:21:51;64.03;;;41.97;;
57465;SDS011;67033;44.984;20.068;2023-04-09T00:24:17;73.10;;;43.67;;
57465;SDS011;67033;44.984;20.068;2023-04-09T00:26:43;73.50;;;42.60;;
57465;SDS011;67033;44.984;20.068;2023-04-09T00:29:09;72.57;;;42.35;;
57465;SDS011;67033;44.984;20.068;2023-04-09T00:31:35;72.95;;;44.50;;
57465;SDS011;67033;44.984;20.068;2023-04-09T00:34:02;74.22;;;42.63;;
57465;SDS011;67033;44.984;20.068;2023-04-09T00:36:28;72.68;;;43.85;;
57465;SDS011;67033;44.984;20.068;2023-04-09T00:38:55;77.07;;;45.30;;
57465;SDS011;67033;44.984;20.068;2023-04-09T00:41:21;72.05;;;43.40;;
57465;SDS011;67033;44.984;20.068;2023-04-09T00:43:47;68.60;;;43.95;;
57465;SDS011;67033;44.984;20.068;2023-04-09T00:46:13;89.85;;;44.55;;
57465;SDS011;67033;44.984;20.068;2023-04-09T00:48:40;96.90;;;49.35;;
57465;SDS011;67033;44.984;20.068;2023-04-09T00:51:06;105.13;;;48.83;;
57465;SDS011;67033;44.984;20.068;2023-04-09T00:53:33;100.57;;;49.13;;
57465;SDS011;67033;44.984;20.068;2023-04-09T00:55:59;76.10;;;44.17;;
57465;SDS011;67033;44.984;20.068;2023-04-09T00:58:26;62.72;;;41.45;;
57465;SDS011;67033;44.984;20.068;2023-04-09T01:00:52;58.03;;;40.75;;
57465;SDS011;67033;44.984;20.068;2023-04-09T01:03:19;62.30;;;41.60;;
57465;SDS011;67033;44.984;20.068;2023-04-09T01:05:49;65.28;;;43.30;;
57465;SDS011;67033;44.984;20.068;2023-04-09T01:08:27;68.20;;;43.33;;
57465;SDS011;67033;44.984;20.068;2023-04-09T01:11:19;65.35;;;41.90;;
57465;SDS011;67033;44.984;20.068;2023-04-09T01:14:00;64.28;;;42.40;;
57465;SDS011;67033;44.984;20.068;2023-04-09T01:16:28;65.40;;;43.25;;
57465;SDS011;67033;44.984;20.068;2023-04-09T01:18:57;66.10;;;41.08;;
57465;SDS011;67033;44.984;20.068;2023-04-09T01:21:25;70.68;;;43.60;;
57465;SDS011;67033;44.984;20.068;2023-04-09T01:29:06;60.95;;;40.22;;
57465;SDS011;67033;44.984;20.068;2023-04-09T01:31:35;59.00;;;40.85;;
57465;SDS011;67033;44.984;20.068;2023-04-09T01:34:02;58.70;;;39.45;;
57465;SDS011;67033;44.984;20.068;2023-04-09T01:36:30;74.50;;;44.83;;
57465;SDS011;67033;44.984;20.068;2023-04-09T01:38:56;78.45;;;47.03;;
57465;SDS011;67033;44.984;20.068;2023-04-09T01:41:25;61.10;;;40.17;;
57465;SDS011;67033;44.984;20.068;2023-04-09T01:43:52;70.35;;;43.38;;
57465;SDS011;67033;44.984;20.068;2023-04-09T01:46:18;77.25;;;46.58;;
57465;SDS011;67033;44.984;20.068;2023-04-09T01:48:45;78.63;;;48.25;;
57465;SDS011;67033;44.984;20.068;2023-04-09T01:51:12;66.65;;;44.25;;
57465;SDS011;67033;44.984;20.068;2023-04-09T01:53:38;71.78;;;43.60;;
57465;SDS011;67033;44.984;20.068;2023-04-09T01:56:05;62.10;;;41.88;;
57465;SDS011;67033;44.984;20.068;2023-04-09T01:58:32;60.60;;;41.92;;
57465;SDS011;67033;44.984;20.068;2023-04-09T02:03:47;61.53;;;41.58;;
57465;SDS011;67033;44.984;20.068;2023-04-09T02:06:28;64.13;;;41.17;;
57465;SDS011;67033;44.984;20.068;2023-04-09T02:08:57;59.85;;;40.58;;
57465;SDS011;67033;44.984;20.068;2023-04-09T02:11:23;60.78;;;42.42;;
57465;SDS011;67033;44.984;20.068;2023-04-09T02:13:50;71.88;;;42.60;;
57465;SDS011;67033;44.984;20.068;2023-04-09T02:16:19;63.08;;;42.67;;
57465;SDS011;67033;44.984;20.068;2023-04-09T02:18:45;65.07;;;42.75;;
57465;SDS011;67033;44.984;20.068;2023-04-09T02:21:11;64.90;;;44.47;;
57465;SDS011;67033;44.984;20.068;2023-04-09T02:23:37;62.45;;;44.03;;
57465;SDS011;67033;44.984;20.068;2023-04-09T02:26:04;71.82;;;47.47;;
57465;SDS011;67033;44.984;20.068;2023-04-09T02:28:31;74.97;;;47.15;;
57465;SDS011;67033;44.984;20.068;2023-04-09T02:30:57;69.20;;;45.03;;
57465;SDS011;67033;44.984;20.068;2023-04-09T02:33:23;67.25;;;45.78;;
57465;SDS011;67033;44.984;20.068;2023-04-09T02:35:50;69.97;;;46.75;;
57465;SDS011;67033;44.984;20.068;2023-04-09T02:38:16;73.00;;;48.45;;
57465;SDS011;67033;44.984;20.068;2023-04-09T02:40:42;72.88;;;48.22;;
57465;SDS011;67033;44.984;20.068;2023-04-09T02:43:08;72.90;;;47.90;;
57465;SDS011;67033;44.984;20.068;2023-04-09T02:45:35;76.22;;;49.58;;
57465;SDS011;67033;44.984;20.068;2023-04-09T02:48:01;75.20;;;49.97;;
57465;SDS011;67033;44.984;20.068;2023-04-09T02:50:27;78.70;;;52.38;;
57465;SDS011;67033;44.984;20.068;2023-04-09T02:52:54;80.50;;;53.33;;
57465;SDS011;67033;44.984;20.068;2023-04-09T02:55:20;75.70;;;49.67;;
57465;SDS011;67033;44.984;20.068;2023-04-09T02:57:46;77.50;;;49.95;;
57465;SDS011;67033;44.984;20.068;2023-04-09T03:00:13;77.35;;;51.50;;
57465;SDS011;67033;44.984;20.068;2023-04-09T03:02:39;73.13;;;49.42;;
57465;SDS011;67033;44.984;20.068;2023-04-09T03:05:06;79.45;;;50.17;;
57465;SDS011;67033;44.984;20.068;2023-04-09T03:07:32;77.43;;;51.38;;
57465;SDS011;67033;44.984;20.068;2023-04-09T03:09:58;73.85;;;50.72;;
57465;SDS011;67033;44.984;20.068;2023-04-09T03:12:24;72.22;;;49.25;;
57465;SDS011;67033;44.984;20.068;2023-04-09T03:14:51;78.78;;;50.08;;
57465;SDS011;67033;44.984;20.068;2023-04-09T03:17:17;75.68;;;49.67;;
57465;SDS011;67033;44.984;20.068;2023-04-09T03:19:43;77.43;;;50.92;;
57465;SDS011;67033;44.984;20.068;2023-04-09T03:22:09;75.82;;;49.25;;
57465;SDS011;67033;44.984;20.068;2023-04-09T03:24:35;71.38;;;49.90;;
57465;SDS011;67033;44.984;20.068;2023-04-09T03:27:03;76.38;;;49.90;;
57465;SDS011;67033;44.984;20.068;2023-04-09T03:29:29;69.57;;;46.47;;
57465;SDS011;67033;44.984;20.068;2023-04-09T03:31:55;75.35;;;48.50;;
57465;SDS011;67033;44.984;20.068;2023-04-09T03:34:22;67.60;;;46.85;;
57465;SDS011;67033;44.984;20.068;2023-04-09T03:36:48;80.25;;;48.65;;
57465;SDS011;67033;44.984;20.068;2023-04-09T03:39:15;76.28;;;48.95;;
57465;SDS011;67033;44.984;20.068;2023-04-09T03:41:41;77.65;;;48.70;;
57465;SDS011;67033;44.984;20.068;2023-04-09T03:44:07;73.53;;;47.97;;
57465;SDS011;67033;44.984;20.068;2023-04-09T03:46:33;73.05;;;47.15;;
57465;SDS011;67033;44.984;20.068;2023-04-09T03:49:00;78.28;;;47.63;;
57465;SDS011;67033;44.984;20.068;2023-04-09T03:51:26;78.93;;;48.25;;
57465;SDS011;67033;44.984;20.068;2023-04-09T03:53:52;74.72;;;46.42;;
57465;SDS011;67033;44.984;20.068;2023-04-09T03:56:18;73.68;;;45.00;;
57465;SDS011;67033;44.984;20.068;2023-04-09T03:58:44;74.22;;;45.05;;
57465;SDS011;67033;44.984;20.068;2023-04-09T04:01:12;72.45;;;44.58;;
57465;SDS011;67033;44.984;20.068;2023-04-09T04:03:38;74.68;;;45.95;;
57465;SDS011;67033;44.984;20.068;2023-04-09T04:06:05;74.03;;;46.97;;
57465;SDS011;67033;44.984;20.068;2023-04-09T04:08:31;72.13;;;45.08;;
57465;SDS011;67033;44.984;20.068;2023-04-09T04:11:03;74.47;;;45.90;;
57465;SDS011;67033;44.984;20.068;2023-04-09T04:13:30;76.32;;;47.13;;
57465;SDS011;67033;44.984;20.068;2023-04-09T04:15:56;84.50;;;49.83;;
57465;SDS011;67033;44.984;20.068;2023-04-09T04:18:22;84.30;;;48.00;;
57465;SDS011;67033;44.984;20.068;2023-04-09T04:20:48;74.53;;;47.22;;
57465;SDS011;67033;44.984;20.068;2023-04-09T04:23:15;76.40;;;48.00;;
57465;SDS011;67033;44.984;20.068;2023-04-09T04:25:41;72.50;;;46.25;;
57465;SDS011;67033;44.984;20.068;2023-04-09T04:28:08;72.75;;;45.65;;
57465;SDS011;67033;44.984;20.068;2023-04-09T04:30:34;76.57;;;45.45;;
57465;SDS011;67033;44.984;20.068;2023-04-09T04:33:00;72.10;;;44.15;;
57465;SDS011;67033;44.984;20.068;2023-04-09T04:35:27;74.88;;;45.30;;
57465;SDS011;67033;44.984;20.068;2023-04-09T04:37:53;76.28;;;45.03;;
57465;SDS011;67033;44.984;20.068;2023-04-09T04:40:19;75.90;;;48.17;;
57465;SDS011;67033;44.984;20.068;2023-04-09T04:42:45;77.03;;;46.47;;
57465;SDS011;67033;44.984;20.068;2023-04-09T04:45:11;82.75;;;47.58;;
57465;SDS011;67033;44.984;20.068;2023-04-09T04:47:38;90.03;;;47.83;;
57465;SDS011;67033;44.984;20.068;2023-04-09T04:50:04;98.43;;;49.90;;
57465;SDS011;67033;44.984;20.068;2023-04-09T04:52:31;94.53;;;48.13;;
57465;SDS011;67033;44.984;20.068;2023-04-09T04:54:57;98.20;;;45.83;;
57465;SDS011;67033;44.984;20.068;2023-04-09T04:57:23;119.43;;;46.47;;
57465;SDS011;67033;44.984;20.068;2023-04-09T04:59:50;116.55;;;47.03;;
57465;SDS011;67033;44.984;20.068;2023-04-09T05:02:16;156.65;;;48.75;;
57465;SDS011;67033;44.984;20.068;2023-04-09T05:04:42;120.45;;;45.72;;
57465;SDS011;67033;44.984;20.068;2023-04-09T05:07:08;112.47;;;45.20;;
57465;SDS011;67033;44.984;20.068;2023-04-09T05:09:34;130.32;;;46.10;;
57465;SDS011;67033;44.984;20.068;2023-04-09T05:12:00;120.60;;;46.85;;
57465;SDS011;67033;44.984;20.068;2023-04-09T05:14:27;141.32;;;45.88;;
57465;SDS011;67033;44.984;20.068;2023-04-09T05:16:53;133.88;;;47.30;;
57465;SDS011;67033;44.984;20.068;2023-04-09T05:19:19;171.30;;;49.50;;
57465;SDS011;67033;44.984;20.068;2023-04-09T05:21:45;158.85;;;49.03;;
57465;SDS011;67033;44.984;20.068;2023-04-09T05:24:11;150.27;;;48.60;;
57465;SDS011;67033;44.984;20.068;2023-04-09T05:26:38;146.32;;;49.05;;
57465;SDS011;67033;44.984;20.068;2023-04-09T05:29:04;114.57;;;47.83;;
57465;SDS011;67033;44.984;20.068;2023-04-09T05:31:30;136.85;;;47.65;;
57465;SDS011;67033;44.984;20.068;2023-04-09T05:33:57;144.02;;;52.78;;
57465;SDS011;67033;44.984;20.068;2023-04-09T05:36:23;127.90;;;52.05;;
57465;SDS011;67033;44.984;20.068;2023-04-09T05:38:50;131.73;;;50.85;;
57465;SDS011;67033;44.984;20.068;2023-04-09T05:41:16;115.00;;;49.42;;
57465;SDS011;67033;44.984;20.068;2023-04-09T05:43:42;105.18;;;48.38;;
57465;SDS011;67033;44.984;20.068;2023-04-09T05:46:08;101.97;;;47.60;;
57465;SDS011;67033;44.984;20.068;2023-04-09T05:48:34;92.32;;;48.55;;
57465;SDS011;67033;44.984;20.068;2023-04-09T05:51:01;135.77;;;60.92;;
57465;SDS011;67033;44.984;20.068;2023-04-09T05:53:27;144.77;;;58.53;;
57465;SDS011;67033;44.984;20.068;2023-04-09T05:55:53;128.32;;;59.70;;
57465;SDS011;67033;44.984;20.068;2023-04-09T05:58:20;303.80;;;92.53;;
57465;SDS011;67033;44.984;20.068;2023-04-09T06:00:46;271.85;;;96.03;;
57465;SDS011;67033;44.984;20.068;2023-04-09T06:03:12;109.20;;;53.63;;
57465;SDS011;67033;44.984;20.068;2023-04-09T06:05:38;86.82;;;48.80;;
57465;SDS011;67033;44.984;20.068;2023-04-09T06:08:04;87.45;;;49.58;;
57465;SDS011;67033;44.984;20.068;2023-04-09T06:10:31;127.95;;;60.97;;
57465;SDS011;67033;44.984;20.068;2023-04-09T06:12:57;164.27;;;71.50;;
57465;SDS011;67033;44.984;20.068;2023-04-09T06:15:23;221.88;;;91.65;;
57465;SDS011;67033;44.984;20.068;2023-04-09T06:17:49;142.38;;;73.18;;
57465;SDS011;67033;44.984;20.068;2023-04-09T06:20:15;92.93;;;55.33;;
57465;SDS011;67033;44.984;20.068;2023-04-09T06:22:42;72.03;;;45.47;;
57465;SDS011;67033;44.984;20.068;2023-04-09T06:25:08;71.13;;;45.88;;
57465;SDS011;67033;44.984;20.068;2023-04-09T06:27:34;113.55;;;63.75;;
57465;SDS011;67033;44.984;20.068;2023-04-09T06:30:00;98.68;;;53.45;;
57465;SDS011;67033;44.984;20.068;2023-04-09T06:32:27;109.80;;;57.67;;
57465;SDS011;67033;44.984;20.068;2023-04-09T06:34:53;83.75;;;52.50;;
57465;SDS011;67033;44.984;20.068;2023-04-09T06:37:19;91.40;;;56.08;;
57465;SDS011;67033;44.984;20.068;2023-04-09T06:39:45;70.35;;;45.33;;
57465;SDS011;67033;44.984;20.068;2023-04-09T06:42:11;107.20;;;58.47;;
57465;SDS011;67033;44.984;20.068;2023-04-09T06:44:37;90.35;;;51.47;;
57465;SDS011;67033;44.984;20.068;2023-04-09T06:47:04;84.22;;;51.83;;
57465;SDS011;67033;44.984;20.068;2023-04-09T06:49:30;56.38;;;37.13;;
57465;SDS011;67033;44.984;20.068;2023-04-09T06:51:56;51.35;;;35.75;;
57465;SDS011;67033;44.984;20.068;2023-04-09T06:54:22;53.95;;;35.25;;
57465;SDS011;67033;44.984;20.068;2023-04-09T06:56:48;51.72;;;35.22;;
57465;SDS011;67033;44.984;20.068;2023-04-09T06:59:15;46.30;;;33.20;;
57465;SDS011;67033;44.984;20.068;2023-04-09T07:01:41;56.95;;;37.67;;
57465;SDS011;67033;44.984;20.068;2023-04-09T07:04:08;53.20;;;36.58;;
57465;SDS011;67033;44.984;20.068;2023-04-09T07:06:34;55.22;;;37.75;;
57465;SDS011;67033;44.984;20.068;2023-04-09T07:09:00;51.05;;;35.78;;
57465;SDS011;67033;44.984;20.068;2023-04-09T07:11:27;52.72;;;34.88;;
57465;SDS011;67033;44.984;20.068;2023-04-09T07:13:53;52.53;;;36.83;;
57465;SDS011;67033;44.984;20.068;2023-04-09T07:16:20;49.60;;;35.30;;
57465;SDS011;67033;44.984;20.068;2023-04-09T07:18:46;56.33;;;36.38;;
57465;SDS011;67033;44.984;20.068;2023-04-09T07:21:12;51.45;;;36.60;;
57465;SDS011;67033;44.984;20.068;2023-04-09T07:23:38;48.15;;;35.10;;
57465;SDS011;67033;44.984;20.068;2023-04-09T07:26:04;52.58;;;34.97;;
57465;SDS011;67033;44.984;20.068;2023-04-09T07:28:30;48.40;;;33.50;;
57465;SDS011;67033;44.984;20.068;2023-04-09T07:30:57;48.75;;;33.38;;
57465;SDS011;67033;44.984;20.068;2023-04-09T07:33:25;45.70;;;32.92;;
57465;SDS011;67033;44.984;20.068;2023-04-09T07:35:51;44.40;;;31.90;;
57465;SDS011;67033;44.984;20.068;2023-04-09T07:38:16;49.17;;;33.63;;
57465;SDS011;67033;44.984;20.068;2023-04-09T07:40:42;47.35;;;34.08;;
57465;SDS011;67033;44.984;20.068;2023-04-09T07:43:08;45.17;;;32.40;;
57465;SDS011;67033;44.984;20.068;2023-04-09T07:45:34;45.10;;;32.42;;
57465;SDS011;67033;44.984;20.068;2023-04-09T07:48:00;43.58;;;33.20;;
57465;SDS011;67033;44.984;20.068;2023-04-09T07:50:25;49.83;;;34.90;;
57465;SDS011;67033;44.984;20.068;2023-04-09T07:52:51;44.00;;;32.90;;
57465;SDS011;67033;44.984;20.068;2023-04-09T07:55:17;46.15;;;33.67;;
57465;SDS011;67033;44.984;20.068;2023-04-09T07:57:44;47.63;;;32.75;;
57465;SDS011;67033;44.984;20.068;2023-04-09T08:00:10;46.95;;;33.63;;
57465;SDS011;67033;44.984;20.068;2023-04-09T08:02:37;49.92;;;34.28;;
57465;SDS011;67033;44.984;20.068;2023-04-09T08:05:03;44.22;;;30.98;;
57465;SDS011;67033;44.984;20.068;2023-04-09T08:07:29;47.90;;;35.20;;
57465;SDS011;67033;44.984;20.068;2023-04-09T08:09:55;42.35;;;32.22;;
57465;SDS011;67033;44.984;20.068;2023-04-09T08:12:21;46.92;;;30.73;;
57465;SDS011;67033;44.984;20.068;2023-04-09T08:14:48;45.75;;;33.50;;
57465;SDS011;67033;44.984;20.068;2023-04-09T08:17:14;43.55;;;32.40;;
57465;SDS011;67033;44.984;20.068;2023-04-09T08:19:40;45.25;;;30.20;;
57465;SDS011;67033;44.984;20.068;2023-04-09T08:22:06;46.42;;;32.78;;
57465;SDS011;67033;44.984;20.068;2023-04-09T08:24:31;42.13;;;32.03;;
57465;SDS011;67033;44.984;20.068;2023-04-09T08:26:58;43.38;;;32.15;;
57465;SDS011;67033;44.984;20.068;2023-04-09T08:29:25;44.97;;;32.38;;
57465;SDS011;67033;44.984;20.068;2023-04-09T08:31:51;59.28;;;44.83;;
57465;SDS011;67033;44.984;20.068;2023-04-09T08:34:17;35.92;;;29.23;;
57465;SDS011;67033;44.984;20.068;2023-04-09T08:36:46;40.45;;;30.65;;
57465;SDS011;67033;44.984;20.068;2023-04-09T08:39:14;41.97;;;30.55;;
57465;SDS011;67033;44.984;20.068;2023-04-09T08:41:42;43.95;;;31.45;;
57465;SDS011;67033;44.984;20.068;2023-04-09T08:44:10;37.42;;;29.70;;
57465;SDS011;67033;44.984;20.068;2023-04-09T08:46:36;40.75;;;29.02;;
57465;SDS011;67033;44.984;20.068;2023-04-09T08:49:02;37.92;;;28.30;;
57465;SDS011;67033;44.984;20.068;2023-04-09T08:51:29;38.40;;;29.88;;
57465;SDS011;67033;44.984;20.068;2023-04-09T08:53:58;37.72;;;30.15;;
57465;SDS011;67033;44.984;20.068;2023-04-09T08:56:25;34.85;;;27.60;;
57465;SDS011;67033;44.984;20.068;2023-04-09T08:58:52;33.15;;;28.27;;
57465;SDS011;67033;44.984;20.068;2023-04-09T09:04:07;41.00;;;31.48;;
57465;SDS011;67033;44.984;20.068;2023-04-09T09:06:38;37.03;;;30.23;;
57465;SDS011;67033;44.984;20.068;2023-04-09T09:09:09;38.40;;;29.85;;
57465;SDS011;67033;44.984;20.068;2023-04-09T09:11:40;36.33;;;30.30;;
57465;SDS011;67033;44.984;20.068;2023-04-09T09:14:11;37.45;;;29.25;;
57465;SDS011;67033;44.984;20.068;2023-04-09T09:16:39;224.38;;;154.45;;
57465;SDS011;67033;44.984;20.068;2023-04-09T09:19:28;84.10;;;60.58;;
57465;SDS011;67033;44.984;20.068;2023-04-09T09:22:06;41.75;;;30.80;;
57465;SDS011;67033;44.984;20.068;2023-04-09T09:24:32;66.22;;;43.20;;
57465;SDS011;67033;44.984;20.068;2023-04-09T09:27:01;40.58;;;31.00;;
57465;SDS011;67033;44.984;20.068;2023-04-09T09:29:28;45.50;;;34.00;;
57465;SDS011;67033;44.984;20.068;2023-04-09T09:31:54;38.75;;;30.40;;
57465;SDS011;67033;44.984;20.068;2023-04-09T09:34:21;41.25;;;32.42;;
57465;SDS011;67033;44.984;20.068;2023-04-09T09:36:48;35.30;;;30.33;;
57465;SDS011;67033;44.984;20.068;2023-04-09T09:39:15;36.45;;;29.40;;
57465;SDS011;67033;44.984;20.068;2023-04-09T09:41:42;40.47;;;30.20;;
57465;SDS011;67033;44.984;20.068;2023-04-09T09:44:10;36.80;;;29.02;;
57465;SDS011;67033;44.984;20.068;2023-04-09T09:46:37;41.20;;;31.65;;
57465;SDS011;67033;44.984;20.068;2023-04-09T09:49:06;46.53;;;34.83;;
57465;SDS011;67033;44.984;20.068;2023-04-09T09:51:34;56.42;;;37.50;;
57465;SDS011;67033;44.984;20.068;2023-04-09T09:54:01;49.60;;;34.93;;
57465;SDS011;67033;44.984;20.068;2023-04-09T09:56:32;39.65;;;30.23;;
57465;SDS011;67033;44.984;20.068;2023-04-09T09:59:05;36.42;;;29.13;;
57465;SDS011;67033;44.984;20.068;2023-04-09T10:01:41;35.00;;;28.70;;
57465;SDS011;67033;44.984;20.068;2023-04-09T10:04:08;36.35;;;29.92;;
57465;SDS011;67033;44.984;20.068;2023-04-09T10:09:07;44.05;;;32.00;;
57465;SDS011;67033;44.984;20.068;2023-04-09T10:11:34;43.00;;;31.75;;
57465;SDS011;67033;44.984;20.068;2023-04-09T10:14:01;38.03;;;28.50;;
57465;SDS011;67033;44.984;20.068;2023-04-09T10:16:29;35.45;;;28.63;;
57465;SDS011;67033;44.984;20.068;2023-04-09T10:18:56;35.83;;;27.92;;
57465;SDS011;67033;44.984;20.068;2023-04-09T10:24:14;34.08;;;26.40;;
57465;SDS011;67033;44.984;20.068;2023-04-09T10:26:41;37.60;;;28.85;;
57465;SDS011;67033;44.984;20.068;2023-04-09T10:29:11;38.13;;;29.10;;
57465;SDS011;67033;44.984;20.068;2023-04-09T10:34:13;35.25;;;27.92;;
57465;SDS011;67033;44.984;20.068;2023-04-09T10:36:43;34.95;;;27.58;;
57465;SDS011;67033;44.984;20.068;2023-04-09T10:39:13;33.90;;;27.80;;
57465;SDS011;67033;44.984;20.068;2023-04-09T10:41:40;35.40;;;29.35;;
57465;SDS011;67033;44.984;20.068;2023-04-09T10:44:21;37.30;;;28.40;;
57465;SDS011;67033;44.984;20.068;2023-04-09T10:46:48;31.08;;;25.13;;
57465;SDS011;67033;44.984;20.068;2023-04-09T10:49:23;33.08;;;26.27;;
57465;SDS011;67033;44.984;20.068;2023-04-09T10:52:00;34.58;;;27.10;;
57465;SDS011;67033;44.984;20.068;2023-04-09T10:57:18;36.60;;;27.92;;
57465;SDS011;67033;44.984;20.068;2023-04-09T10:59:51;37.22;;;28.83;;
57465;SDS011;67033;44.984;20.068;2023-04-09T11:07:51;32.90;;;26.13;;
57465;SDS011;67033;44.984;20.068;2023-04-09T11:10:18;34.67;;;28.33;;
57465;SDS011;67033;44.984;20.068;2023-04-09T11:12:46;43.70;;;30.85;;
57465;SDS011;67033;44.984;20.068;2023-04-09T11:15:16;34.65;;;28.30;;
57465;SDS011;67033;44.984;20.068;2023-04-09T11:17:48;40.38;;;31.60;;
57465;SDS011;67033;44.984;20.068;2023-04-09T11:20:20;40.97;;;31.50;;
57465;SDS011;67033;44.984;20.068;2023-04-09T11:22:48;33.95;;;27.15;;
57465;SDS011;67033;44.984;20.068;2023-04-09T11:25:22;38.92;;;31.55;;
57465;SDS011;67033;44.984;20.068;2023-04-09T11:27:50;42.47;;;32.60;;
57465;SDS011;67033;44.984;20.068;2023-04-09T11:30:17;44.13;;;32.88;;
57465;SDS011;67033;44.984;20.068;2023-04-09T11:32:43;91.60;;;44.58;;
57465;SDS011;67033;44.984;20.068;2023-04-09T11:35:19;131.13;;;49.95;;
57465;SDS011;67033;44.984;20.068;2023-04-09T11:37:46;54.58;;;34.78;;
57465;SDS011;67033;44.984;20.068;2023-04-09T11:40:14;36.92;;;28.35;;
57465;SDS011;67033;44.984;20.068;2023-04-09T11:42:42;41.85;;;29.95;;
57465;SDS011;67033;44.984;20.068;2023-04-09T11:45:09;41.53;;;29.92;;
57465;SDS011;67033;44.984;20.068;2023-04-09T11:47:35;57.45;;;36.28;;
57465;SDS011;67033;44.984;20.068;2023-04-09T11:50:02;43.15;;;33.45;;
57465;SDS011;67033;44.984;20.068;2023-04-09T11:52:28;34.90;;;24.88;;
57465;SDS011;67033;44.984;20.068;2023-04-09T11:54:59;46.30;;;30.08;;
57465;SDS011;67033;44.984;20.068;2023-04-09T11:57:34;36.53;;;27.45;;
57465;SDS011;67033;44.984;20.068;2023-04-09T12:00:12;35.30;;;28.15;;
57465;SDS011;67033;44.984;20.068;2023-04-09T12:02:58;36.15;;;27.70;;
57465;SDS011;67033;44.984;20.068;2023-04-09T12:05:29;31.83;;;26.33;;
57465;SDS011;67033;44.984;20.068;2023-04-09T12:10:30;31.85;;;23.60;;
57465;SDS011;67033;44.984;20.068;2023-04-09T12:13:07;36.78;;;26.27;;
57465;SDS011;67033;44.984;20.068;2023-04-09T12:15:38;32.92;;;23.13;;
57465;SDS011;67033;44.984;20.068;2023-04-09T12:18:07;30.52;;;23.77;;
57465;SDS011;67033;44.984;20.068;2023-04-09T12:20:38;29.85;;;22.85;;
57465;SDS011;67033;44.984;20.068;2023-04-09T12:23:06;25.13;;;22.25;;
57465;SDS011;67033;44.984;20.068;2023-04-09T12:25:34;31.17;;;24.33;;
57465;SDS011;67033;44.984;20.068;2023-04-09T12:28:05;33.92;;;26.10;;
57465;SDS011;67033;44.984;20.068;2023-04-09T12:30:33;32.85;;;25.23;;
57465;SDS011;67033;44.984;20.068;2023-04-09T12:32:59;28.10;;;22.85;;
57465;SDS011;67033;44.984;20.068;2023-04-09T12:35:25;26.60;;;21.80;;
57465;SDS011;67033;44.984;20.068;2023-04-09T12:37:52;28.42;;;23.02;;
57465;SDS011;67033;44.984;20.068;2023-04-09T12:40:18;30.25;;;24.05;;
57465;SDS011;67033;44.984;20.068;2023-04-09T12:42:44;27.00;;;23.00;;
57465;SDS011;67033;44.984;20.068;2023-04-09T12:45:11;57.20;;;32.42;;
57465;SDS011;67033;44.984;20.068;2023-04-09T12:47:39;47.77;;;29.47;;
57465;SDS011;67033;44.984;20.068;2023-04-09T12:50:06;27.45;;;23.02;;
57465;SDS011;67033;44.984;20.068;2023-04-09T12:52:33;64.93;;;39.17;;
57465;SDS011;67033;44.984;20.068;2023-04-09T12:55:00;27.27;;;22.02;;
57465;SDS011;67033;44.984;20.068;2023-04-09T12:57:26;30.38;;;24.92;;
57465;SDS011;67033;44.984;20.068;2023-04-09T12:59:52;28.27;;;23.40;;
57465;SDS011;67033;44.984;20.068;2023-04-09T13:02:19;27.83;;;22.38;;
57465;SDS011;67033;44.984;20.068;2023-04-09T13:04:48;51.97;;;33.20;;
57465;SDS011;67033;44.984;20.068;2023-04-09T13:07:15;36.13;;;25.92;;
57465;SDS011;67033;44.984;20.068;2023-04-09T13:09:46;30.85;;;23.88;;
57465;SDS011;67033;44.984;20.068;2023-04-09T13:12:14;29.85;;;24.20;;
57465;SDS011;67033;44.984;20.068;2023-04-09T13:14:41;24.23;;;20.63;;
57465;SDS011;67033;44.984;20.068;2023-04-09T13:17:08;25.00;;;21.00;;
57465;SDS011;67033;44.984;20.068;2023-04-09T13:19:33;21.13;;;18.92;;
57465;SDS011;67033;44.984;20.068;2023-04-09T13:21:59;24.60;;;21.63;;
57465;SDS011;67033;44.984;20.068;2023-04-09T13:24:26;27.40;;;23.23;;
57465;SDS011;67033;44.984;20.068;2023-04-09T13:26:52;27.35;;;22.65;;
57465;SDS011;67033;44.984;20.068;2023-04-09T13:29:18;28.33;;;23.80;;
57465;SDS011;67033;44.984;20.068;2023-04-09T13:31:44;29.00;;;23.48;;
57465;SDS011;67033;44.984;20.068;2023-04-09T13:34:10;25.83;;;23.08;;
57465;SDS011;67033;44.984;20.068;2023-04-09T13:36:36;26.58;;;23.38;;
57465;SDS011;67033;44.984;20.068;2023-04-09T13:39:02;27.42;;;21.48;;
57465;SDS011;67033;44.984;20.068;2023-04-09T13:41:31;30.08;;;23.52;;
57465;SDS011;67033;44.984;20.068;2023-04-09T13:43:58;26.92;;;22.40;;
57465;SDS011;67033;44.984;20.068;2023-04-09T13:46:25;24.85;;;21.38;;
57465;SDS011;67033;44.984;20.068;2023-04-09T13:48:51;25.60;;;22.02;;
57465;SDS011;67033;44.984;20.068;2023-04-09T13:51:19;32.00;;;25.90;;
57465;SDS011;67033;44.984;20.068;2023-04-09T13:53:46;26.65;;;21.60;;
57465;SDS011;67033;44.984;20.068;2023-04-09T13:56:13;27.58;;;22.42;;
57465;SDS011;67033;44.984;20.068;2023-04-09T13:58:39;28.88;;;22.40;;
57465;SDS011;67033;44.984;20.068;2023-04-09T14:01:05;26.77;;;23.33;;
57465;SDS011;67033;44.984;20.068;2023-04-09T14:03:31;25.80;;;22.65;;
57465;SDS011;67033;44.984;20.068;2023-04-09T14:05:57;28.25;;;23.23;;
57465;SDS011;67033;44.984;20.068;2023-04-09T14:08:23;29.25;;;24.20;;
57465;SDS011;67033;44.984;20.068;2023-04-09T14:10:49;24.85;;;21.27;;
57465;SDS011;67033;44.984;20.068;2023-04-09T14:13:15;30.02;;;24.20;;
57465;SDS011;67033;44.984;20.068;2023-04-09T14:15:41;27.52;;;23.75;;
57465;SDS011;67033;44.984;20.068;2023-04-09T14:18:09;25.58;;;21.75;;
57465;SDS011;67033;44.984;20.068;2023-04-09T14:20:35;31.00;;;24.02;;
57465;SDS011;67033;44.984;20.068;2023-04-09T14:23:02;26.38;;;21.80;;
57465;SDS011;67033;44.984;20.068;2023-04-09T14:25:28;26.45;;;22.88;;
57465;SDS011;67033;44.984;20.068;2023-04-09T14:27:55;26.27;;;21.50;;
57465;SDS011;67033;44.984;20.068;2023-04-09T14:30:21;28.10;;;22.10;;
57465;SDS011;67033;44.984;20.068;2023-04-09T14:32:47;26.70;;;22.50;;
57465;SDS011;67033;44.984;20.068;2023-04-09T14:35:14;25.70;;;21.80;;
57465;SDS011;67033;44.984;20.068;2023-04-09T14:37:40;23.92;;;20.90;;
57465;SDS011;67033;44.984;20.068;2023-04-09T14:40:07;23.02;;;20.05;;